sensor_id;sensor_type;location;lat;lon;timestamp;P1;durP1;ratioP1;P2;durP2;ratioP2
57893;SDS011;43710;47.460;19.034;2023-02-20T04:57:33;11.07;;;5.00;;
57893;SDS011;43710;47.460;19.034;2023-02-20T05:00:36;8.20;;;4.62;;
57893;SDS011;43710;47.460;19.034;2023-02-20T05:03:38;11.93;;;5.22;;
57893;SDS011;43710;47.460;19.034;2023-02-20T05:06:42;10.32;;;4.55;;
57893;SDS011;43710;47.460;19.034;2023-02-20T05:09:47;9.23;;;4.43;;
57893;SDS011;43710;47.460;19.034;2023-02-20T05:12:49;7.55;;;4.28;;
57893;SDS011;43710;47.460;19.034;2023-02-20T05:15:51;8.88;;;3.92;;
57893;SDS011;43710;47.460;19.034;2023-02-20T05:18:54;12.05;;;4.32;;
57893;SDS011;43710;47.460;19.034;2023-02-20T05:21:56;7.43;;;3.58;;
57893;SDS011;43710;47.460;19.034;2023-02-20T05:25:17;8.80;;;3.72;;
57893;SDS011;43710;47.460;19.034;2023-02-20T05:28:20;7.95;;;4.03;;
57893;SDS011;43710;47.460;19.034;2023-02-20T05:31:23;7.90;;;3.85;;
57893;SDS011;43710;47.460;19.034;2023-02-20T05:34:25;7.28;;;3.40;;
57893;SDS011;43710;47.460;19.034;2023-02-20T05:37:28;6.20;;;4.07;;
57893;SDS011;43710;47.460;19.034;2023-02-20T05:40:30;5.10;;;3.40;;
57893;SDS011;43710;47.460;19.034;2023-02-20T05:43:33;11.75;;;4.05;;
57893;SDS011;43710;47.460;19.034;2023-02-20T05:46:39;5.45;;;3.05;;
57893;SDS011;43710;47.460;19.034;2023-02-20T05:49:42;6.37;;;3.85;;
57893;SDS011;43710;47.460;19.034;2023-02-20T05:52:45;6.03;;;2.90;;
57893;SDS011;43710;47.460;19.034;2023-02-20T05:55:48;10.05;;;3.42;;
57893;SDS011;43710;47.460;19.034;2023-02-20T05:58:51;4.43;;;2.85;;
57893;SDS011;43710;47.460;19.034;2023-02-20T06:01:57;8.23;;;3.35;;
57893;SDS011;43710;47.460;19.034;2023-02-20T06:05:01;6.35;;;3.60;;
57893;SDS011;43710;47.460;19.034;2023-02-20T06:08:04;6.05;;;3.33;;
57893;SDS011;43710;47.460;19.034;2023-02-20T06:11:06;7.20;;;3.50;;
57893;SDS011;43710;47.460;19.034;2023-02-20T06:14:11;8.07;;;2.87;;
57893;SDS011;43710;47.460;19.034;2023-02-20T06:17:13;6.25;;;3.47;;
57893;SDS011;43710;47.460;19.034;2023-02-20T06:20:15;7.30;;;3.20;;
57893;SDS011;43710;47.460;19.034;2023-02-20T06:23:18;9.13;;;3.37;;
57893;SDS011;43710;47.460;19.034;2023-02-20T06:26:21;9.98;;;3.92;;
57893;SDS011;43710;47.460;19.034;2023-02-20T06:29:24;6.43;;;2.70;;
57893;SDS011;43710;47.460;19.034;2023-02-20T06:32:26;6.03;;;3.00;;
57893;SDS011;43710;47.460;19.034;2023-02-20T06:35:28;7.28;;;3.40;;
57893;SDS011;43710;47.460;19.034;2023-02-20T06:38:31;6.47;;;3.03;;
57893;SDS011;43710;47.460;19.034;2023-02-20T06:41:33;7.15;;;2.87;;
57893;SDS011;43710;47.460;19.034;2023-02-20T06:44:35;7.72;;;3.33;;
57893;SDS011;43710;47.460;19.034;2023-02-20T06:47:38;6.95;;;3.30;;
57893;SDS011;43710;47.460;19.034;2023-02-20T06:50:40;9.30;;;3.17;;
57893;SDS011;43710;47.460;19.034;2023-02-20T06:53:43;7.28;;;3.50;;
57893;SDS011;43710;47.460;19.034;2023-02-20T06:56:45;11.25;;;4.07;;
57893;SDS011;43710;47.460;19.034;2023-02-20T06:59:47;10.25;;;3.65;;
57893;SDS011;43710;47.460;19.034;2023-02-20T07:02:50;6.10;;;3.30;;
57893;SDS011;43710;47.460;19.034;2023-02-20T07:05:53;7.72;;;3.10;;
57893;SDS011;43710;47.460;19.034;2023-02-20T07:08:55;7.55;;;3.22;;
57893;SDS011;43710;47.460;19.034;2023-02-20T07:11:57;7.90;;;3.08;;
57893;SDS011;43710;47.460;19.034;2023-02-20T07:15:00;6.90;;;3.20;;
57893;SDS011;43710;47.460;19.034;2023-02-20T07:18:02;7.03;;;3.67;;
57893;SDS011;43710;47.460;19.034;2023-02-20T07:21:05;6.05;;;3.30;;
57893;SDS011;43710;47.460;19.034;2023-02-20T07:24:07;6.57;;;3.17;;
57893;SDS011;43710;47.460;19.034;2023-02-20T07:27:09;7.72;;;3.28;;
57893;SDS011;43710;47.460;19.034;2023-02-20T07:30:12;18.73;;;3.55;;
57893;SDS011;43710;47.460;19.034;2023-02-20T07:33:15;5.82;;;3.20;;
57893;SDS011;43710;47.460;19.034;2023-02-20T07:36:19;8.07;;;3.05;;
57893;SDS011;43710;47.460;19.034;2023-02-20T07:39:21;8.55;;;3.12;;
57893;SDS011;43710;47.460;19.034;2023-02-20T07:42:26;7.30;;;3.00;;
57893;SDS011;43710;47.460;19.034;2023-02-20T07:45:32;8.70;;;2.93;;
57893;SDS011;43710;47.460;19.034;2023-02-20T07:48:36;8.35;;;3.53;;
57893;SDS011;43710;47.460;19.034;2023-02-20T07:51:38;4.87;;;2.35;;
57893;SDS011;43710;47.460;19.034;2023-02-20T07:54:42;7.45;;;2.72;;
57893;SDS011;43710;47.460;19.034;2023-02-20T07:57:45;5.37;;;2.20;;
57893;SDS011;43710;47.460;19.034;2023-02-20T08:00:49;6.87;;;2.62;;
57893;SDS011;43710;47.460;19.034;2023-02-20T08:03:55;3.75;;;2.65;;
57893;SDS011;43710;47.460;19.034;2023-02-20T08:06:57;4.37;;;2.83;;
57893;SDS011;43710;47.460;19.034;2023-02-20T08:09:59;5.95;;;3.20;;
57893;SDS011;43710;47.460;19.034;2023-02-20T08:13:02;6.00;;;2.78;;
57893;SDS011;43710;47.460;19.034;2023-02-20T08:16:05;6.65;;;2.62;;
57893;SDS011;43710;47.460;19.034;2023-02-20T08:19:07;7.37;;;3.12;;
57893;SDS011;43710;47.460;19.034;2023-02-20T08:22:10;7.55;;;2.58;;
57893;SDS011;43710;47.460;19.034;2023-02-20T08:25:12;6.50;;;2.90;;
57893;SDS011;43710;47.460;19.034;2023-02-20T08:28:16;6.22;;;3.50;;
57893;SDS011;43710;47.460;19.034;2023-02-20T08:31:19;6.45;;;3.25;;
57893;SDS011;43710;47.460;19.034;2023-02-20T08:34:33;5.50;;;3.00;;
57893;SDS011;43710;47.460;19.034;2023-02-20T08:37:35;4.62;;;2.87;;
57893;SDS011;43710;47.460;19.034;2023-02-20T08:40:38;5.35;;;3.10;;
57893;SDS011;43710;47.460;19.034;2023-02-20T08:43:42;6.68;;;3.33;;
57893;SDS011;43710;47.460;19.034;2023-02-20T08:46:45;7.18;;;3.55;;
57893;SDS011;43710;47.460;19.034;2023-02-20T08:49:51;5.18;;;2.97;;
57893;SDS011;43710;47.460;19.034;2023-02-20T08:52:54;7.40;;;3.70;;
57893;SDS011;43710;47.460;19.034;2023-02-20T08:55:56;5.72;;;2.90;;
57893;SDS011;43710;47.460;19.034;2023-02-20T08:58:59;5.45;;;3.55;;
57893;SDS011;43710;47.460;19.034;2023-02-20T09:02:01;7.25;;;3.58;;
57893;SDS011;43710;47.460;19.034;2023-02-20T09:05:03;5.07;;;3.60;;
57893;SDS011;43710;47.460;19.034;2023-02-20T09:08:06;5.47;;;3.80;;
57893;SDS011;43710;47.460;19.034;2023-02-20T09:11:08;7.12;;;3.97;;
57893;SDS011;43710;47.460;19.034;2023-02-20T09:14:13;6.15;;;3.65;;
57893;SDS011;43710;47.460;19.034;2023-02-20T09:17:15;10.57;;;4.35;;
57893;SDS011;43710;47.460;19.034;2023-02-20T09:20:18;8.80;;;3.72;;
57893;SDS011;43710;47.460;19.034;2023-02-20T09:23:23;8.07;;;3.42;;
57893;SDS011;43710;47.460;19.034;2023-02-20T09:26:26;8.00;;;3.33;;
57893;SDS011;43710;47.460;19.034;2023-02-20T09:29:28;6.82;;;3.78;;
57893;SDS011;43710;47.460;19.034;2023-02-20T09:32:31;7.70;;;3.83;;
57893;SDS011;43710;47.460;19.034;2023-02-20T09:35:34;9.45;;;4.35;;
57893;SDS011;43710;47.460;19.034;2023-02-20T09:38:36;6.20;;;4.07;;
57893;SDS011;43710;47.460;19.034;2023-02-20T09:45:10;8.95;;;4.87;;
57893;SDS011;43710;47.460;19.034;2023-02-20T09:51:58;7.55;;;4.43;;
57893;SDS011;43710;47.460;19.034;2023-02-20T09:55:08;6.57;;;3.80;;
57893;SDS011;43710;47.460;19.034;2023-02-20T09:58:19;6.87;;;4.00;;
57893;SDS011;43710;47.460;19.034;2023-02-20T10:01:27;5.10;;;3.75;;
57893;SDS011;43710;47.460;19.034;2023-02-20T10:04:33;8.73;;;3.80;;
57893;SDS011;43710;47.460;19.034;2023-02-20T10:07:40;6.00;;;3.70;;
57893;SDS011;43710;47.460;19.034;2023-02-20T10:10:43;6.93;;;3.65;;
57893;SDS011;43710;47.460;19.034;2023-02-20T10:13:50;7.10;;;3.58;;
57893;SDS011;43710;47.460;19.034;2023-02-20T10:17:04;8.32;;;3.70;;
57893;SDS011;43710;47.460;19.034;2023-02-20T10:20:13;8.13;;;4.28;;
57893;SDS011;43710;47.460;19.034;2023-02-20T10:26:42;6.65;;;3.80;;
57893;SDS011;43710;47.460;19.034;2023-02-20T10:29:51;9.77;;;4.53;;
57893;SDS011;43710;47.460;19.034;2023-02-20T10:36:11;10.20;;;4.22;;
57893;SDS011;43710;47.460;19.034;2023-02-20T10:39:27;6.35;;;3.92;;
57893;SDS011;43710;47.460;19.034;2023-02-20T10:42:38;7.60;;;4.12;;
57893;SDS011;43710;47.460;19.034;2023-02-20T10:45:57;5.87;;;3.80;;
57893;SDS011;43710;47.460;19.034;2023-02-20T10:49:18;6.60;;;4.28;;
57893;SDS011;43710;47.460;19.034;2023-02-20T10:52:33;8.02;;;5.62;;
57893;SDS011;43710;47.460;19.034;2023-02-20T10:55:55;7.60;;;4.32;;
57893;SDS011;43710;47.460;19.034;2023-02-20T10:59:09;7.53;;;4.10;;
57893;SDS011;43710;47.460;19.034;2023-02-20T11:02:20;10.18;;;4.15;;
57893;SDS011;43710;47.460;19.034;2023-02-20T11:05:27;8.45;;;4.10;;
57893;SDS011;43710;47.460;19.034;2023-02-20T11:08:35;5.45;;;3.90;;
57893;SDS011;43710;47.460;19.034;2023-02-20T11:11:44;6.30;;;4.18;;
57893;SDS011;43710;47.460;19.034;2023-02-20T11:14:47;7.12;;;4.20;;
57893;SDS011;43710;47.460;19.034;2023-02-20T11:17:53;5.80;;;3.95;;
57893;SDS011;43710;47.460;19.034;2023-02-20T11:20:57;8.60;;;5.05;;
57893;SDS011;43710;47.460;19.034;2023-02-20T11:24:15;7.25;;;4.20;;
57893;SDS011;43710;47.460;19.034;2023-02-20T11:27:24;7.43;;;4.50;;
57893;SDS011;43710;47.460;19.034;2023-02-20T11:30:34;6.37;;;4.20;;
57893;SDS011;43710;47.460;19.034;2023-02-20T11:33:43;8.52;;;4.45;;
57893;SDS011;43710;47.460;19.034;2023-02-20T11:36:51;7.10;;;4.25;;
57893;SDS011;43710;47.460;19.034;2023-02-20T11:39:55;6.80;;;4.07;;
57893;SDS011;43710;47.460;19.034;2023-02-20T11:46:22;6.10;;;4.20;;
57893;SDS011;43710;47.460;19.034;2023-02-20T11:49:25;6.62;;;4.05;;
57893;SDS011;43710;47.460;19.034;2023-02-20T11:52:30;6.20;;;4.15;;
57893;SDS011;43710;47.460;19.034;2023-02-20T11:55:32;8.20;;;4.25;;
57893;SDS011;43710;47.460;19.034;2023-02-20T11:58:36;6.80;;;4.47;;
57893;SDS011;43710;47.460;19.034;2023-02-20T12:01:39;7.03;;;4.22;;
57893;SDS011;43710;47.460;19.034;2023-02-20T12:04:59;7.55;;;4.68;;
57893;SDS011;43710;47.460;19.034;2023-02-20T12:08:27;7.32;;;4.40;;
57893;SDS011;43710;47.460;19.034;2023-02-20T12:11:38;7.18;;;4.30;;
57893;SDS011;43710;47.460;19.034;2023-02-20T12:14:41;6.25;;;4.03;;
57893;SDS011;43710;47.460;19.034;2023-02-20T12:34:24;6.40;;;3.80;;
57893;SDS011;43710;47.460;19.034;2023-02-20T12:37:53;6.70;;;3.97;;
57893;SDS011;43710;47.460;19.034;2023-02-20T12:51:52;6.35;;;4.62;;
57893;SDS011;43710;47.460;19.034;2023-02-20T12:55:23;7.40;;;4.05;;
57893;SDS011;43710;47.460;19.034;2023-02-20T13:02:19;7.03;;;4.60;;
57893;SDS011;43710;47.460;19.034;2023-02-20T13:05:44;6.72;;;4.40;;
57893;SDS011;43710;47.460;19.034;2023-02-20T13:08:54;7.78;;;4.30;;
57893;SDS011;43710;47.460;19.034;2023-02-20T13:12:12;7.87;;;4.40;;
57893;SDS011;43710;47.460;19.034;2023-02-20T13:18:35;8.30;;;4.10;;
57893;SDS011;43710;47.460;19.034;2023-02-20T13:21:47;6.95;;;3.92;;
57893;SDS011;43710;47.460;19.034;2023-02-20T13:24:50;7.18;;;3.90;;
57893;SDS011;43710;47.460;19.034;2023-02-20T13:28:00;7.43;;;3.42;;
57893;SDS011;43710;47.460;19.034;2023-02-20T13:31:18;6.00;;;3.60;;
57893;SDS011;43710;47.460;19.034;2023-02-20T13:40:35;8.13;;;3.50;;
57893;SDS011;43710;47.460;19.034;2023-02-20T13:43:39;5.60;;;2.87;;
57893;SDS011;43710;47.460;19.034;2023-02-20T13:46:54;5.53;;;3.00;;
57893;SDS011;43710;47.460;19.034;2023-02-20T13:49:59;4.97;;;2.50;;
57893;SDS011;43710;47.460;19.034;2023-02-20T13:53:01;4.45;;;2.55;;
57893;SDS011;43710;47.460;19.034;2023-02-20T13:56:13;5.03;;;2.47;;
57893;SDS011;43710;47.460;19.034;2023-02-20T13:59:26;4.30;;;2.40;;
57893;SDS011;43710;47.460;19.034;2023-02-20T14:02:29;4.40;;;2.42;;
57893;SDS011;43710;47.460;19.034;2023-02-20T14:05:32;5.70;;;2.60;;
57893;SDS011;43710;47.460;19.034;2023-02-20T14:08:35;4.62;;;2.08;;
57893;SDS011;43710;47.460;19.034;2023-02-20T14:11:39;6.57;;;2.03;;
57893;SDS011;43710;47.460;19.034;2023-02-20T14:14:42;5.25;;;2.55;;
57893;SDS011;43710;47.460;19.034;2023-02-20T14:17:47;4.90;;;2.25;;
57893;SDS011;43710;47.460;19.034;2023-02-20T14:21:03;3.97;;;2.05;;
57893;SDS011;43710;47.460;19.034;2023-02-20T14:24:16;5.72;;;2.30;;
57893;SDS011;43710;47.460;19.034;2023-02-20T14:27:30;5.07;;;1.92;;
57893;SDS011;43710;47.460;19.034;2023-02-20T14:30:34;5.10;;;2.17;;
57893;SDS011;43710;47.460;19.034;2023-02-20T14:33:36;5.93;;;1.77;;
57893;SDS011;43710;47.460;19.034;2023-02-20T14:36:48;5.87;;;2.12;;
57893;SDS011;43710;47.460;19.034;2023-02-20T14:39:55;5.60;;;2.20;;
57893;SDS011;43710;47.460;19.034;2023-02-20T14:46:25;5.72;;;2.80;;
57893;SDS011;43710;47.460;19.034;2023-02-20T14:49:30;8.82;;;4.78;;
57893;SDS011;43710;47.460;19.034;2023-02-20T14:52:32;6.97;;;4.53;;
57893;SDS011;43710;47.460;19.034;2023-02-20T14:55:34;6.87;;;5.05;;
57893;SDS011;43710;47.460;19.034;2023-02-20T14:58:37;8.38;;;5.62;;
57893;SDS011;43710;47.460;19.034;2023-02-20T15:01:40;8.00;;;5.28;;
57893;SDS011;43710;47.460;19.034;2023-02-20T15:04:48;8.00;;;5.30;;
57893;SDS011;43710;47.460;19.034;2023-02-20T15:07:59;9.13;;;5.40;;
57893;SDS011;43710;47.460;19.034;2023-02-20T15:11:11;8.35;;;5.32;;
57893;SDS011;43710;47.460;19.034;2023-02-20T15:14:17;7.30;;;5.32;;
57893;SDS011;43710;47.460;19.034;2023-02-20T15:17:25;11.30;;;6.68;;
57893;SDS011;43710;47.460;19.034;2023-02-20T15:23:37;8.35;;;5.75;;
57893;SDS011;43710;47.460;19.034;2023-02-20T15:26:44;7.82;;;5.55;;
57893;SDS011;43710;47.460;19.034;2023-02-20T15:30:05;9.05;;;5.68;;
57893;SDS011;43710;47.460;19.034;2023-02-20T15:33:16;9.88;;;6.10;;
57893;SDS011;43710;47.460;19.034;2023-02-20T15:36:19;11.90;;;6.50;;
57893;SDS011;43710;47.460;19.034;2023-02-20T15:39:25;9.85;;;6.97;;
57893;SDS011;43710;47.460;19.034;2023-02-20T15:42:27;14.98;;;6.78;;
57893;SDS011;43710;47.460;19.034;2023-02-20T15:45:30;9.85;;;6.87;;
57893;SDS011;43710;47.460;19.034;2023-02-20T15:48:32;9.25;;;6.93;;
57893;SDS011;43710;47.460;19.034;2023-02-20T15:51:36;10.45;;;7.18;;
57893;SDS011;43710;47.460;19.034;2023-02-20T15:54:45;9.00;;;6.82;;
57893;SDS011;43710;47.460;19.034;2023-02-20T15:57:53;10.48;;;7.05;;
57893;SDS011;43710;47.460;19.034;2023-02-20T16:00:58;8.95;;;6.70;;
57893;SDS011;43710;47.460;19.034;2023-02-20T16:04:01;10.60;;;7.05;;
57893;SDS011;43710;47.460;19.034;2023-02-20T16:07:03;10.05;;;7.37;;
57893;SDS011;43710;47.460;19.034;2023-02-20T16:10:05;10.18;;;7.10;;
57893;SDS011;43710;47.460;19.034;2023-02-20T16:13:30;11.75;;;7.43;;
57893;SDS011;43710;47.460;19.034;2023-02-20T16:16:35;14.05;;;7.80;;
57893;SDS011;43710;47.460;19.034;2023-02-20T16:19:41;11.65;;;8.10;;
57893;SDS011;43710;47.460;19.034;2023-02-20T16:22:44;11.23;;;7.57;;
57893;SDS011;43710;47.460;19.034;2023-02-20T16:25:47;12.30;;;8.05;;
57893;SDS011;43710;47.460;19.034;2023-02-20T16:28:52;9.65;;;7.90;;
57893;SDS011;43710;47.460;19.034;2023-02-20T16:35:01;10.80;;;8.30;;
57893;SDS011;43710;47.460;19.034;2023-02-20T16:38:04;12.52;;;8.10;;
57893;SDS011;43710;47.460;19.034;2023-02-20T16:41:07;53.35;;;46.13;;
57893;SDS011;43710;47.460;19.034;2023-02-20T16:44:13;32.92;;;29.60;;
